Time;durP1;ratioP1;P1;durP2;ratioP2;P2;SDS_P1;SDS_P2;PMS_P1;PMS_P2;Temp;Humidity;BMP_temperature;BMP_pressure;BME280_temperature;BME280_humidity;BME280_pressure;Samples;Min_cycle;Max_cycle;Signal;HPM_P1;HPM_P2
2023/03/31 00:01:40;;;;;;;18.70;4.05;;;;;;;;;;4970595;28;98257;-76
2023/03/31 00:04:12;;;;;;;19.02;4.32;;;;;;;;;;4969384;28;99768;-76
2023/03/31 00:06:43;;;;;;;22.05;4.95;;;;;;;;;;4969347;28;100081;-76
2023/03/31 00:09:11;;;;;;;23.20;4.28;;;;;;;;;;4970409;28;98282;-76
2023/03/31 00:11:38;;;;;;;17.42;4.30;;;;;;;;;;4970152;28;98686;-76
2023/03/31 00:14:08;;;;;;;22.10;3.97;;;;;;;;;;4972143;28;99962;-76
2023/03/31 00:16:35;;;;;;;20.60;5.03;;;;;;;;;;4969881;28;98930;-76
2023/03/31 00:19:02;;;;;;;18.52;4.25;;;;;;;;;;4968797;28;99978;-76
2023/03/31 00:21:32;;;;;;;18.88;5.20;;;;;;;;;;4970353;28;98230;-76
2023/03/31 00:24:03;;;;;;;17.17;3.60;;;;;;;;;;4969432;28;99368;-76
2023/03/31 00:26:29;;;;;;;21.33;4.22;;;;;;;;;;4969372;28;98969;-76
2023/03/31 00:28:56;;;;;;;16.42;3.80;;;;;;;;;;4969027;28;98152;-76
2023/03/31 00:31:23;;;;;;;18.48;3.92;;;;;;;;;;4972516;28;98369;-76
2023/03/31 00:33:49;;;;;;;15.60;3.53;;;;;;;;;;4967668;28;100011;-76
2023/03/31 00:36:28;;;;;;;14.98;3.70;;;;;;;;;;4975611;28;98262;-76
2023/03/31 00:38:59;;;;;;;10.70;3.20;;;;;;;;;;4971989;28;98971;-76
2023/03/31 00:41:26;;;;;;;22.35;4.35;;;;;;;;;;4972964;28;98110;-76
2023/03/31 00:44:00;;;;;;;15.65;4.03;;;;;;;;;;4978641;28;98632;-76
2023/03/31 00:46:29;;;;;;;19.52;5.22;;;;;;;;;;4975490;28;98895;-76
2023/03/31 00:48:56;;;;;;;20.92;5.10;;;;;;;;;;4975312;28;98086;-76
2023/03/31 00:51:24;;;;;;;17.17;4.15;;;;;;;;;;4970873;28;100176;-76
2023/03/31 00:54:03;;;;;;;12.82;4.03;;;;;;;;;;4968730;28;99871;-76
2023/03/31 00:56:32;;;;;;;10.82;3.85;;;;;;;;;;4969821;28;98077;-76
2023/03/31 00:59:00;;;;;;;10.32;3.35;;;;;;;;;;4972238;28;98458;-76
2023/03/31 01:01:29;;;;;;;15.63;3.60;;;;;;;;;;4969237;28;98912;-76
2023/03/31 01:03:56;;;;;;;20.02;3.78;;;;;;;;;;4969372;28;98910;-76
2023/03/31 01:06:24;;;;;;;11.02;3.25;;;;;;;;;;4969139;28;98833;-76
2023/03/31 01:08:50;;;;;;;12.20;3.20;;;;;;;;;;4968900;28;98602;-76
2023/03/31 01:11:22;;;;;;;11.48;3.30;;;;;;;;;;4968440;28;98841;-76
2023/03/31 01:13:50;;;;;;;11.50;2.95;;;;;;;;;;4969053;28;98967;-76
2023/03/31 01:16:17;;;;;;;17.20;3.70;;;;;;;;;;4969059;28;98977;-76
2023/03/31 01:18:48;;;;;;;16.80;3.60;;;;;;;;;;4968095;28;98588;-76
2023/03/31 01:21:17;;;;;;;12.15;2.97;;;;;;;;;;4972480;28;99893;-76
2023/03/31 01:24:02;;;;;;;11.60;3.50;;;;;;;;;;4968378;28;98619;-76
2023/03/31 01:26:41;;;;;;;10.70;3.15;;;;;;;;;;4969120;28;98813;-76
2023/03/31 01:29:18;;;;;;;11.18;3.10;;;;;;;;;;4967902;28;98245;-76
2023/03/31 01:32:04;;;;;;;17.20;4.07;;;;;;;;;;4969152;28;98646;-76
2023/03/31 01:34:40;;;;;;;13.63;2.92;;;;;;;;;;4967357;28;101975;-76
2023/03/31 01:37:18;;;;;;;9.48;2.63;;;;;;;;;;4968001;28;98532;-76
2023/03/31 01:40:07;;;;;;;13.20;4.10;;;;;;;;;;4968768;28;98275;-76
2023/03/31 01:42:47;;;;;;;20.05;3.92;;;;;;;;;;4968511;28;99982;-76
2023/03/31 01:45:29;;;;;;;11.65;3.13;;;;;;;;;;4970945;28;98329;-76
2023/03/31 01:47:57;;;;;;;11.63;3.65;;;;;;;;;;4968562;28;98691;-76
2023/03/31 01:50:46;;;;;;;11.10;3.45;;;;;;;;;;4968165;28;98541;-76
2023/03/31 01:53:21;;;;;;;17.15;3.83;;;;;;;;;;4968823;28;99608;-76
2023/03/31 01:56:00;;;;;;;13.95;3.45;;;;;;;;;;4968136;28;98902;-76
2023/03/31 01:58:40;;;;;;;12.68;4.00;;;;;;;;;;4967648;28;98690;-77
2023/03/31 02:01:24;;;;;;;13.48;3.83;;;;;;;;;;4967369;28;100035;-76
2023/03/31 02:03:56;;;;;;;16.20;3.90;;;;;;;;;;4968519;28;100104;-76
2023/03/31 02:06:25;;;;;;;13.95;4.13;;;;;;;;;;4971137;28;98343;-76
2023/03/31 02:09:01;;;;;;;16.13;4.47;;;;;;;;;;4966013;28;99020;-77
2023/03/31 02:11:28;;;;;;;15.95;4.50;;;;;;;;;;4965458;28;99211;-77
2023/03/31 02:13:55;;;;;;;18.02;5.03;;;;;;;;;;4966821;28;99662;-77
2023/03/31 02:16:24;;;;;;;12.82;4.07;;;;;;;;;;4968410;28;99713;-76
2023/03/31 02:18:53;;;;;;;15.32;4.53;;;;;;;;;;4967265;28;98578;-76
2023/03/31 02:21:21;;;;;;;15.45;4.68;;;;;;;;;;4968366;28;98418;-76
2023/03/31 02:23:50;;;;;;;15.00;3.97;;;;;;;;;;4967518;28;98911;-76
2023/03/31 02:26:19;;;;;;;14.40;4.43;;;;;;;;;;4967447;28;98217;-76
2023/03/31 02:28:46;;;;;;;10.80;3.88;;;;;;;;;;4970987;28;98449;-76
2023/03/31 02:31:20;;;;;;;13.43;4.15;;;;;;;;;;4968049;28;98350;-76
2023/03/31 02:33:47;;;;;;;16.52;4.93;;;;;;;;;;4967359;28;98827;-76
2023/03/31 02:36:14;;;;;;;20.75;5.30;;;;;;;;;;4967164;28;98852;-76
2023/03/31 02:38:53;;;;;;;15.27;4.40;;;;;;;;;;4966728;28;98265;-76
2023/03/31 02:41:20;;;;;;;19.42;4.40;;;;;;;;;;4967376;28;98705;-76
2023/03/31 02:43:48;;;;;;;15.48;4.40;;;;;;;;;;4966243;28;102122;-76
2023/03/31 02:46:14;;;;;;;17.08;4.68;;;;;;;;;;4967868;28;98294;-75
2023/03/31 02:48:44;;;;;;;18.98;4.82;;;;;;;;;;4965845;28;100284;-76
2023/03/31 02:51:24;;;;;;;11.88;4.32;;;;;;;;;;4969629;28;101970;-76
2023/03/31 02:54:10;;;;;;;19.50;4.90;;;;;;;;;;4965408;28;98454;-77
2023/03/31 02:57:15;;;;;;;22.95;5.70;;;;;;;;;;4965896;28;101829;-76
2023/03/31 02:59:41;;;;;;;16.23;4.38;;;;;;;;;;4967325;28;98175;-76
2023/03/31 03:02:11;;;;;;;13.45;4.18;;;;;;;;;;4966503;28;98762;-76
2023/03/31 03:04:37;;;;;;;14.95;4.68;;;;;;;;;;4966290;28;99021;-76
2023/03/31 03:07:12;;;;;;;17.88;5.53;;;;;;;;;;4966030;28;98253;-76
2023/03/31 03:09:39;;;;;;;21.80;4.85;;;;;;;;;;4965773;28;98740;-76
2023/03/31 03:12:08;;;;;;;13.68;4.55;;;;;;;;;;4965667;28;101805;-76
2023/03/31 03:14:43;;;;;;;18.70;4.70;;;;;;;;;;4969560;28;98488;-76
2023/03/31 03:17:12;;;;;;;25.48;4.35;;;;;;;;;;4966805;28;100079;-76
2023/03/31 03:19:40;;;;;;;21.48;4.63;;;;;;;;;;4967814;28;98215;-76
2023/03/31 03:22:07;;;;;;;17.98;4.25;;;;;;;;;;4969908;28;99624;-76
2023/03/31 03:24:34;;;;;;;23.27;4.05;;;;;;;;;;4971177;28;98929;-76
2023/03/31 03:27:00;;;;;;;15.18;4.32;;;;;;;;;;4969568;28;98067;-77
2023/03/31 03:29:27;;;;;;;15.60;4.35;;;;;;;;;;4970296;28;99314;-77
2023/03/31 03:31:53;;;;;;;13.45;3.72;;;;;;;;;;4970307;28;99130;-77
2023/03/31 03:34:20;;;;;;;10.00;3.08;;;;;;;;;;4971108;28;98266;-77
2023/03/31 03:36:46;;;;;;;16.52;3.83;;;;;;;;;;4972737;28;98723;-77
2023/03/31 03:39:13;;;;;;;10.90;2.80;;;;;;;;;;4970768;28;98557;-77
2023/03/31 03:41:39;;;;;;;17.00;4.00;;;;;;;;;;4970686;28;98564;-77
2023/03/31 03:44:05;;;;;;;11.38;3.22;;;;;;;;;;4969213;28;99989;-77
2023/03/31 03:46:32;;;;;;;14.57;3.28;;;;;;;;;;4970696;28;99142;-77
2023/03/31 03:48:58;;;;;;;10.85;3.00;;;;;;;;;;4970503;28;98605;-77
2023/03/31 03:51:24;;;;;;;19.65;4.88;;;;;;;;;;4968736;28;98977;-76
2023/03/31 03:53:51;;;;;;;16.23;2.88;;;;;;;;;;4969773;28;98246;-76
2023/03/31 03:56:17;;;;;;;19.13;4.25;;;;;;;;;;4970274;28;98786;-77
2023/03/31 03:58:44;;;;;;;12.35;3.00;;;;;;;;;;4971359;28;98262;-76
2023/03/31 04:01:10;;;;;;;13.10;3.08;;;;;;;;;;4970646;28;98535;-76
2023/03/31 04:03:36;;;;;;;15.98;3.72;;;;;;;;;;4970074;28;100052;-76
2023/03/31 04:06:03;;;;;;;15.40;3.17;;;;;;;;;;4969132;28;98414;-76
2023/03/31 04:08:30;;;;;;;21.63;4.05;;;;;;;;;;4970909;28;98515;-77
2023/03/31 04:10:56;;;;;;;14.52;3.20;;;;;;;;;;4969489;28;99149;-77
2023/03/31 04:13:23;;;;;;;14.98;3.28;;;;;;;;;;4969376;28;98863;-77
2023/03/31 04:15:49;;;;;;;16.90;3.65;;;;;;;;;;4968961;28;99002;-76
2023/03/31 04:18:21;;;;;;;12.80;2.53;;;;;;;;;;4972268;28;100361;-76
2023/03/31 04:20:53;;;;;;;11.18;2.60;;;;;;;;;;4969725;28;99623;-76
2023/03/31 04:23:22;;;;;;;9.57;2.40;;;;;;;;;;4969886;28;99889;-76
2023/03/31 04:25:51;;;;;;;9.77;1.88;;;;;;;;;;4968896;28;98326;-76
2023/03/31 04:28:18;;;;;;;7.60;2.97;;;;;;;;;;4969786;28;98397;-76
2023/03/31 04:30:45;;;;;;;8.02;2.33;;;;;;;;;;4969630;28;99071;-76
2023/03/31 04:33:14;;;;;;;12.55;2.83;;;;;;;;;;4968841;28;98708;-76
2023/03/31 04:35:51;;;;;;;9.00;2.63;;;;;;;;;;4969741;28;98657;-76
2023/03/31 04:38:19;;;;;;;7.18;2.90;;;;;;;;;;4969515;28;99326;-76
2023/03/31 04:40:47;;;;;;;12.68;2.33;;;;;;;;;;4971161;28;98466;-76
2023/03/31 04:43:13;;;;;;;7.95;2.50;;;;;;;;;;4969329;28;99185;-75
2023/03/31 04:45:40;;;;;;;9.15;2.03;;;;;;;;;;4969579;28;98260;-75
2023/03/31 04:48:07;;;;;;;13.20;2.65;;;;;;;;;;4968384;28;99331;-76
2023/03/31 04:50:34;;;;;;;7.72;2.25;;;;;;;;;;4969192;28;99221;-75
2023/03/31 04:53:00;;;;;;;9.38;2.75;;;;;;;;;;4969241;28;98194;-76
2023/03/31 04:55:27;;;;;;;10.82;2.95;;;;;;;;;;4968875;28;99693;-75
2023/03/31 04:57:53;;;;;;;19.30;3.42;;;;;;;;;;4968723;28;99130;-75
2023/03/31 05:00:20;;;;;;;12.32;3.70;;;;;;;;;;4968487;28;98584;-75
2023/03/31 05:02:46;;;;;;;13.52;4.47;;;;;;;;;;4971916;28;100095;-75
2023/03/31 05:05:13;;;;;;;7.13;3.30;;;;;;;;;;4969064;28;98298;-76
2023/03/31 05:07:39;;;;;;;15.27;4.45;;;;;;;;;;4968407;28;99955;-75
2023/03/31 05:10:06;;;;;;;13.25;3.95;;;;;;;;;;4968460;28;100245;-75
2023/03/31 05:12:34;;;;;;;12.13;5.05;;;;;;;;;;4969180;28;98304;-75
2023/03/31 05:15:00;;;;;;;10.95;4.15;;;;;;;;;;4967995;28;99436;-76
2023/03/31 05:17:26;;;;;;;11.10;4.15;;;;;;;;;;4969514;28;100053;-76
2023/03/31 05:19:53;;;;;;;16.98;4.20;;;;;;;;;;4968234;28;98531;-76
2023/03/31 05:22:19;;;;;;;15.77;3.67;;;;;;;;;;4968423;28;99703;-76
2023/03/31 05:24:46;;;;;;;9.95;4.05;;;;;;;;;;4971845;28;100165;-76
2023/03/31 05:27:12;;;;;;;15.90;4.45;;;;;;;;;;4970220;28;99360;-76
2023/03/31 05:29:39;;;;;;;12.68;4.45;;;;;;;;;;4967829;28;99086;-76
2023/03/31 05:32:05;;;;;;;15.25;4.32;;;;;;;;;;4968659;28;98266;-76
2023/03/31 05:34:31;;;;;;;12.50;3.42;;;;;;;;;;4968472;28;99640;-76
2023/03/31 05:36:58;;;;;;;9.77;3.28;;;;;;;;;;4967905;28;99981;-76
2023/03/31 05:39:24;;;;;;;7.72;3.90;;;;;;;;;;4968696;28;98320;-76
2023/03/31 05:41:51;;;;;;;14.32;4.20;;;;;;;;;;4968472;28;99362;-76
2023/03/31 05:44:19;;;;;;;11.80;3.40;;;;;;;;;;4967913;28;99091;-76
2023/03/31 05:46:45;;;;;;;8.20;3.00;;;;;;;;;;4971589;28;98224;-76
2023/03/31 05:49:15;;;;;;;13.13;4.28;;;;;;;;;;4968804;28;99122;-75
2023/03/31 05:51:41;;;;;;;12.52;3.53;;;;;;;;;;4968207;28;98258;-76
2023/03/31 05:54:07;;;;;;;14.50;4.18;;;;;;;;;;4967881;28;98112;-76
2023/03/31 05:56:34;;;;;;;16.90;4.57;;;;;;;;;;4967552;28;99078;-76
2023/03/31 05:59:00;;;;;;;16.27;3.15;;;;;;;;;;4967467;28;98294;-76
2023/03/31 06:01:28;;;;;;;21.48;3.42;;;;;;;;;;4968498;28;99439;-76
2023/03/31 06:03:55;;;;;;;11.05;3.00;;;;;;;;;;4967385;28;98975;-76
2023/03/31 06:06:21;;;;;;;12.48;3.20;;;;;;;;;;4972360;28;98984;-76
2023/03/31 06:08:48;;;;;;;7.70;2.90;;;;;;;;;;4967980;28;99086;-76
2023/03/31 06:11:18;;;;;;;12.00;2.72;;;;;;;;;;4967905;28;98385;-76
2023/03/31 06:13:44;;;;;;;12.50;3.00;;;;;;;;;;4968220;28;99335;-76
2023/03/31 06:16:11;;;;;;;12.75;3.13;;;;;;;;;;4968108;28;99919;-75
2023/03/31 06:18:38;;;;;;;9.90;2.58;;;;;;;;;;4966772;28;98273;-76
2023/03/31 06:21:05;;;;;;;13.10;2.97;;;;;;;;;;4968060;28;98592;-75
2023/03/31 06:23:32;;;;;;;8.23;2.53;;;;;;;;;;4968392;28;98990;-75
2023/03/31 06:26:01;;;;;;;11.15;2.80;;;;;;;;;;4967275;28;98335;-75
2023/03/31 06:28:28;;;;;;;9.20;2.67;;;;;;;;;;4971129;28;99882;-78
2023/03/31 06:31:02;;;;;;;4.15;2.13;;;;;;;;;;4968153;28;98013;-77
2023/03/31 06:33:29;;;;;;;6.82;2.63;;;;;;;;;;4949708;28;100176;-76
2023/03/31 06:35:56;;;;;;;6.75;2.47;;;;;;;;;;4948943;28;98884;-77
2023/03/31 06:38:23;;;;;;;8.05;2.63;;;;;;;;;;4948855;28;98220;-77
2023/03/31 06:40:49;;;;;;;8.82;2.08;;;;;;;;;;4950061;28;98765;-76
2023/03/31 06:43:15;;;;;;;7.30;2.40;;;;;;;;;;4953110;28;99946;-76
2023/03/31 06:45:42;;;;;;;6.68;2.25;;;;;;;;;;4954727;28;98849;-77
2023/03/31 06:48:08;;;;;;;8.13;2.17;;;;;;;;;;4951982;28;100016;-77
2023/03/31 06:50:36;;;;;;;7.60;2.05;;;;;;;;;;4953380;28;99822;-76
2023/03/31 06:53:02;;;;;;;5.15;1.92;;;;;;;;;;4968859;28;99526;-76
2023/03/31 06:55:29;;;;;;;10.15;1.90;;;;;;;;;;4968545;28;100196;-76
2023/03/31 06:57:56;;;;;;;8.20;1.92;;;;;;;;;;4970651;28;98357;-77
2023/03/31 07:00:24;;;;;;;4.20;1.52;;;;;;;;;;4971159;28;99506;-77
2023/03/31 07:02:51;;;;;;;6.97;1.95;;;;;;;;;;4969985;28;98840;-78
2023/03/31 07:05:18;;;;;;;6.70;2.10;;;;;;;;;;4964186;28;98393;-77
2023/03/31 07:07:45;;;;;;;13.95;2.05;;;;;;;;;;4949729;28;99453;-77
2023/03/31 07:10:11;;;;;;;6.30;2.13;;;;;;;;;;4961432;28;98783;-77
2023/03/31 07:12:38;;;;;;;7.53;1.48;;;;;;;;;;4974894;28;98476;-77
2023/03/31 07:15:04;;;;;;;5.28;1.40;;;;;;;;;;4970326;28;99034;-77
2023/03/31 07:17:31;;;;;;;6.60;1.60;;;;;;;;;;4971233;28;98365;-77
2023/03/31 07:19:57;;;;;;;5.00;1.77;;;;;;;;;;4970800;28;99293;-78
2023/03/31 07:22:24;;;;;;;6.05;1.70;;;;;;;;;;4960593;28;100229;-77
2023/03/31 07:24:50;;;;;;;3.67;1.67;;;;;;;;;;4951759;28;98628;-77
2023/03/31 07:27:16;;;;;;;5.28;1.90;;;;;;;;;;4952288;28;98626;-78
2023/03/31 07:29:43;;;;;;;5.72;1.73;;;;;;;;;;4950095;28;100026;-77
2023/03/31 07:32:09;;;;;;;5.30;1.65;;;;;;;;;;4950735;28;98257;-77
2023/03/31 07:34:36;;;;;;;3.33;1.40;;;;;;;;;;4954176;28;99451;-77
2023/03/31 07:37:03;;;;;;;5.90;1.70;;;;;;;;;;4950098;28;99157;-78
2023/03/31 07:39:29;;;;;;;9.38;2.08;;;;;;;;;;4950945;28;99461;-78
2023/03/31 07:41:56;;;;;;;5.85;1.73;;;;;;;;;;4950430;28;100144;-79
2023/03/31 07:44:22;;;;;;;6.88;1.98;;;;;;;;;;4950240;28;98884;-78
2023/03/31 07:46:49;;;;;;;8.32;1.70;;;;;;;;;;4951092;28;98603;-77
2023/03/31 07:49:15;;;;;;;4.55;1.67;;;;;;;;;;4950694;28;99107;-78
2023/03/31 07:51:41;;;;;;;9.23;3.00;;;;;;;;;;4961564;28;98717;-78
2023/03/31 07:54:08;;;;;;;7.18;1.73;;;;;;;;;;4970171;28;99928;-77
2023/03/31 07:56:34;;;;;;;6.82;1.58;;;;;;;;;;4972418;28;98986;-78
2023/03/31 07:59:00;;;;;;;6.38;1.80;;;;;;;;;;4969405;28;99424;-78
2023/03/31 08:01:28;;;;;;;7.60;1.50;;;;;;;;;;4970071;28;99229;-78
2023/03/31 08:03:55;;;;;;;10.63;2.10;;;;;;;;;;4969190;28;98364;-78
2023/03/31 08:06:23;;;;;;;9.63;2.42;;;;;;;;;;4969876;28;100814;-77
2023/03/31 08:08:49;;;;;;;5.47;1.80;;;;;;;;;;4968586;28;99194;-78
2023/03/31 08:11:16;;;;;;;10.55;2.05;;;;;;;;;;4969298;28;98410;-78
2023/03/31 08:13:43;;;;;;;3.58;1.65;;;;;;;;;;4970347;28;98664;-78
2023/03/31 08:16:09;;;;;;;8.60;1.83;;;;;;;;;;4973255;28;99950;-78
2023/03/31 08:18:36;;;;;;;7.47;1.98;;;;;;;;;;4969361;28;99308;-78
2023/03/31 08:21:02;;;;;;;7.53;1.75;;;;;;;;;;4968482;28;99988;-78
2023/03/31 08:23:29;;;;;;;7.90;2.30;;;;;;;;;;4969927;28;98231;-78
2023/03/31 08:26:06;;;;;;;3.15;1.65;;;;;;;;;;4968464;28;98529;-78
2023/03/31 08:28:33;;;;;;;7.10;1.88;;;;;;;;;;4956080;28;100208;-78
2023/03/31 08:31:03;;;;;;;6.35;2.45;;;;;;;;;;4949955;28;98344;-78
2023/03/31 08:33:30;;;;;;;6.25;1.90;;;;;;;;;;4956524;28;98854;-77
2023/03/31 08:36:00;;;;;;;7.68;1.90;;;;;;;;;;4969482;28;98873;-78
2023/03/31 08:38:26;;;;;;;6.78;2.10;;;;;;;;;;4960139;28;98287;-79
2023/03/31 08:40:57;;;;;;;9.50;2.00;;;;;;;;;;4949568;28;100018;-77
2023/03/31 08:43:26;;;;;;;5.53;2.05;;;;;;;;;;4964868;28;98291;-77
2023/03/31 08:45:53;;;;;;;6.93;2.65;;;;;;;;;;4967662;28;99586;-77
2023/03/31 08:48:27;;;;;;;6.20;2.20;;;;;;;;;;4968866;28;99833;-78
2023/03/31 08:50:57;;;;;;;6.43;2.67;;;;;;;;;;4975270;28;99659;-79
2023/03/31 08:53:28;;;;;;;9.07;2.58;;;;;;;;;;4976353;28;98774;-78
2023/03/31 08:55:55;;;;;;;9.15;2.25;;;;;;;;;;4968828;28;99502;-78
2023/03/31 08:58:28;;;;;;;5.85;2.40;;;;;;;;;;4969004;28;98345;-78
2023/03/31 09:00:54;;;;;;;7.32;2.17;;;;;;;;;;4971027;28;99710;-78
2023/03/31 09:03:26;;;;;;;11.82;3.78;;;;;;;;;;4969513;28;98238;-78
2023/03/31 09:06:08;;;;;;;19.52;3.58;;;;;;;;;;4969026;28;98693;-78
2023/03/31 09:08:36;;;;;;;16.88;3.33;;;;;;;;;;4968109;28;100662;-78
2023/03/31 09:11:06;;;;;;;11.98;3.20;;;;;;;;;;4967838;28;98290;-78
2023/03/31 09:13:51;;;;;;;14.13;3.63;;;;;;;;;;4968478;28;99612;-79
2023/03/31 09:16:23;;;;;;;17.13;4.13;;;;;;;;;;4968773;28;99905;-79
2023/03/31 09:18:51;;;;;;;12.93;3.80;;;;;;;;;;4968447;28;98154;-79
2023/03/31 09:21:19;;;;;;;10.48;3.20;;;;;;;;;;4968119;28;99667;-79
2023/03/31 09:24:07;;;;;;;15.55;3.83;;;;;;;;;;4971601;28;99305;-79
2023/03/31 09:26:44;;;;;;;12.63;4.10;;;;;;;;;;4968962;28;99401;-78
2023/03/31 09:29:14;;;;;;;24.58;4.82;;;;;;;;;;4968056;28;99934;-78
2023/03/31 09:31:42;;;;;;;20.15;4.22;;;;;;;;;;4968900;28;98262;-79
2023/03/31 09:34:13;;;;;;;18.17;3.90;;;;;;;;;;4968718;28;100542;-79
2023/03/31 09:36:40;;;;;;;21.17;4.55;;;;;;;;;;4967267;28;99865;-78
2023/03/31 09:39:10;;;;;;;15.77;4.22;;;;;;;;;;4968602;28;98521;-78
2023/03/31 09:41:37;;;;;;;19.85;4.90;;;;;;;;;;4967965;28;99356;-77
2023/03/31 09:44:04;;;;;;;19.67;4.63;;;;;;;;;;4968185;28;100071;-78
2023/03/31 09:46:34;;;;;;;18.98;4.32;;;;;;;;;;4971599;28;98286;-77
2023/03/31 09:49:11;;;;;;;15.57;3.95;;;;;;;;;;4967267;28;99864;-77
2023/03/31 09:51:40;;;;;;;13.95;4.03;;;;;;;;;;4968532;28;99313;-78
2023/03/31 09:54:13;;;;;;;20.52;4.30;;;;;;;;;;4968495;28;99491;-78
2023/03/31 09:56:42;;;;;;;15.55;4.00;;;;;;;;;;4967623;28;100276;-78
2023/03/31 09:59:16;;;;;;;19.23;4.30;;;;;;;;;;4968443;28;98282;-78
2023/03/31 10:01:44;;;;;;;26.10;4.45;;;;;;;;;;4967413;28;99328;-77
2023/03/31 10:04:17;;;;;;;17.35;4.03;;;;;;;;;;4967370;28;100296;-77
2023/03/31 10:06:44;;;;;;;15.63;4.30;;;;;;;;;;4967980;28;98215;-78
2023/03/31 10:09:11;;;;;;;15.07;4.13;;;;;;;;;;4971846;28;98988;-78
2023/03/31 10:11:38;;;;;;;40.38;5.22;;;;;;;;;;4967454;28;98337;-77
2023/03/31 10:14:12;;;;;;;15.25;3.88;;;;;;;;;;4968018;28;99682;-78
2023/03/31 10:16:49;;;;;;;13.32;4.30;;;;;;;;;;4968180;28;99063;-77
2023/03/31 10:19:23;;;;;;;16.90;4.00;;;;;;;;;;4968425;28;98882;-78
2023/03/31 10:22:04;;;;;;;18.27;3.63;;;;;;;;;;4969721;28;99563;-78
2023/03/31 10:24:38;;;;;;;15.07;3.65;;;;;;;;;;4967355;28;99913;-78
2023/03/31 10:27:06;;;;;;;15.52;3.92;;;;;;;;;;4967022;28;98234;-77
2023/03/31 10:29:33;;;;;;;18.52;4.05;;;;;;;;;;4971115;28;99704;-78
2023/03/31 10:32:03;;;;;;;18.75;4.25;;;;;;;;;;4966171;28;98293;-78
2023/03/31 10:34:30;;;;;;;14.32;3.72;;;;;;;;;;4967919;28;99415;-78
2023/03/31 10:36:57;;;;;;;15.23;3.92;;;;;;;;;;4961326;28;99116;-77
2023/03/31 10:39:27;;;;;;;13.90;3.38;;;;;;;;;;4967387;28;98207;-77
2023/03/31 10:41:53;;;;;;;20.50;4.10;;;;;;;;;;4967618;28;99577;-78
2023/03/31 10:44:32;;;;;;;9.75;3.28;;;;;;;;;;4967871;28;100006;-78
2023/03/31 10:47:06;;;;;;;18.42;3.75;;;;;;;;;;4966856;28;98510;-78
2023/03/31 10:49:36;;;;;;;12.73;4.13;;;;;;;;;;4968702;28;98843;-78
2023/03/31 10:52:13;;;;;;;15.80;4.05;;;;;;;;;;4969108;28;99921;-78
2023/03/31 10:54:45;;;;;;;15.70;3.72;;;;;;;;;;4968145;28;99646;-79
2023/03/31 10:57:11;;;;;;;20.35;3.60;;;;;;;;;;4967944;28;100365;-77
2023/03/31 10:59:41;;;;;;;14.98;3.90;;;;;;;;;;4967102;28;98246;-78
2023/03/31 11:02:21;;;;;;;16.25;3.95;;;;;;;;;;4969447;28;100598;-77
2023/03/31 11:05:00;;;;;;;15.63;3.78;;;;;;;;;;4971001;28;99929;-76
2023/03/31 11:07:32;;;;;;;12.77;3.13;;;;;;;;;;4966967;28;98674;-76
2023/03/31 11:10:10;;;;;;;15.70;3.58;;;;;;;;;;4964839;28;99993;-76
2023/03/31 11:12:50;;;;;;;11.10;2.90;;;;;;;;;;4960274;28;100438;-77
2023/03/31 11:15:31;;;;;;;10.23;3.28;;;;;;;;;;4990081;28;98117;-76
2023/03/31 11:18:10;;;;;;;16.50;3.78;;;;;;;;;;4985863;28;100347;-76
2023/03/31 11:20:45;;;;;;;15.52;3.72;;;;;;;;;;4966162;28;98299;-76
2023/03/31 11:23:30;;;;;;;13.52;3.92;;;;;;;;;;4960365;28;99328;-75
2023/03/31 11:25:57;;;;;;;15.10;3.45;;;;;;;;;;4966002;28;100026;-75
2023/03/31 11:28:29;;;;;;;19.75;3.72;;;;;;;;;;4946800;28;98224;-75
2023/03/31 11:31:02;;;;;;;13.43;3.65;;;;;;;;;;4947271;28;99495;-76
2023/03/31 11:33:28;;;;;;;;;;;;;;;;;;4954432;28;99883;-77
2023/03/31 11:36:13;;;;;;;10.85;3.20;;;;;;;;;;4965553;28;123824;-76
2023/03/31 11:39:15;;;;;;;12.85;3.50;;;;;;;;;;4970306;28;99860;-76
2023/03/31 11:41:54;;;;;;;11.88;3.55;;;;;;;;;;4945219;28;98765;-77
2023/03/31 11:44:22;;;;;;;14.30;2.95;;;;;;;;;;4961831;28;99525;-77
2023/03/31 11:46:54;;;;;;;18.27;3.78;;;;;;;;;;4958142;28;99947;-77
2023/03/31 11:49:21;;;;;;;;;;;;;;;;;;4969885;28;98260;-77
2023/03/31 11:51:56;;;;;;;11.18;3.20;;;;;;;;;;4953454;28;129062;-76
2023/03/31 11:54:35;;;;;;;19.15;3.58;;;;;;;;;;4950619;28;100199;-76
2023/03/31 11:57:05;;;;;;;16.45;3.38;;;;;;;;;;4949709;28;98692;-76
2023/03/31 11:59:32;;;;;;;15.13;3.63;;;;;;;;;;4964154;28;98553;-76
2023/03/31 12:02:14;;;;;;;12.60;2.65;;;;;;;;;;4973071;28;100149;-77
2023/03/31 12:04:47;;;;;;;11.35;2.95;;;;;;;;;;4970010;28;99840;-77
2023/03/31 12:07:23;;;;;;;13.25;3.15;;;;;;;;;;4956707;28;99974;-76
2023/03/31 12:10:04;;;;;;;12.98;3.50;;;;;;;;;;4965490;28;98867;-77
2023/03/31 12:12:56;;;;;;;28.83;4.30;;;;;;;;;;4964105;28;99405;-76
2023/03/31 12:15:31;;;;;;;19.50;3.22;;;;;;;;;;4950813;28;100106;-77
2023/03/31 12:18:07;;;;;;;23.33;4.40;;;;;;;;;;4949181;28;98244;-76
2023/03/31 12:20:36;;;;;;;22.05;3.83;;;;;;;;;;4950308;28;99485;-77
2023/03/31 12:23:05;;;;;;;18.80;3.80;;;;;;;;;;4948486;28;102199;-77
2023/03/31 12:25:50;;;;;;;22.75;4.65;;;;;;;;;;4968702;28;98192;-76
2023/03/31 12:28:18;;;;;;;17.15;3.78;;;;;;;;;;4969830;28;100016;-77
2023/03/31 12:30:46;;;;;;;14.27;3.55;;;;;;;;;;4968618;28;98449;-77
2023/03/31 12:33:16;;;;;;;16.58;3.70;;;;;;;;;;4969750;28;98861;-76
2023/03/31 12:35:43;;;;;;;21.95;4.13;;;;;;;;;;4968433;28;99071;-77
2023/03/31 12:38:28;;;;;;;14.40;3.20;;;;;;;;;;4968806;28;98333;-77
2023/03/31 12:41:21;;;;;;;19.20;4.15;;;;;;;;;;4969240;28;99844;-76
2023/03/31 12:44:09;;;;;;;14.55;3.35;;;;;;;;;;4960625;28;99331;-77
2023/03/31 12:46:38;;;;;;;15.13;2.92;;;;;;;;;;4958536;28;98251;-77
2023/03/31 12:49:11;;;;;;;11.38;2.67;;;;;;;;;;4966323;28;99892;-76
2023/03/31 12:51:39;;;;;;;13.07;2.83;;;;;;;;;;4963979;28;100669;-76
2023/03/31 12:54:11;;;;;;;12.52;3.00;;;;;;;;;;4950115;28;98693;-76
2023/03/31 12:56:56;;;;;;;11.77;3.17;;;;;;;;;;4960284;28;99199;-76
2023/03/31 12:59:28;;;;;;;18.90;3.13;;;;;;;;;;4968862;28;98430;-77
2023/03/31 13:02:16;;;;;;;12.32;3.17;;;;;;;;;;4968242;28;99698;-77
2023/03/31 13:04:43;;;;;;;15.65;3.60;;;;;;;;;;4968828;28;99082;-77
2023/03/31 13:07:18;;;;;;;10.07;3.15;;;;;;;;;;4968756;28;98695;-77
2023/03/31 13:09:56;;;;;;;12.95;3.55;;;;;;;;;;4952651;28;98117;-77
2023/03/31 13:12:24;;;;;;;18.25;3.83;;;;;;;;;;4949953;28;98254;-77
2023/03/31 13:14:53;;;;;;;26.85;4.75;;;;;;;;;;4948337;28;99438;-77
2023/03/31 13:17:19;;;;;;;18.30;3.97;;;;;;;;;;4949446;28;100427;-77
2023/03/31 13:19:46;;;;;;;12.60;3.58;;;;;;;;;;4948811;28;98341;-77
2023/03/31 13:22:33;;;;;;;10.13;3.20;;;;;;;;;;4949495;28;98921;-77
2023/03/31 13:25:18;;;;;;;18.25;4.82;;;;;;;;;;4949155;28;100013;-77
2023/03/31 13:27:48;;;;;;;14.23;3.33;;;;;;;;;;4947959;28;98418;-77
2023/03/31 13:30:33;;;;;;;11.93;2.72;;;;;;;;;;4954500;28;100326;-77
2023/03/31 13:33:19;;;;;;;16.42;3.70;;;;;;;;;;4971941;28;99106;-77
2023/03/31 13:35:48;;;;;;;12.68;3.50;;;;;;;;;;4951180;28;99849;-77
2023/03/31 13:38:15;;;;;;;11.68;2.92;;;;;;;;;;4949238;28;98877;-76
2023/03/31 13:40:54;;;;;;;13.48;3.47;;;;;;;;;;4948965;28;98222;-77
2023/03/31 13:43:40;;;;;;;14.73;2.90;;;;;;;;;;4949145;28;98645;-77
2023/03/31 13:46:12;;;;;;;9.98;2.88;;;;;;;;;;4948836;28;98947;-77
2023/03/31 13:48:50;;;;;;;9.98;3.00;;;;;;;;;;4948261;28;98233;-77
2023/03/31 13:51:40;;;;;;;13.13;3.10;;;;;;;;;;4949372;28;100456;-78
2023/03/31 13:54:06;;;;;;;9.90;3.00;;;;;;;;;;4947986;28;99904;-78
2023/03/31 13:56:47;;;;;;;11.23;2.60;;;;;;;;;;4951486;28;98661;-78
2023/03/31 13:59:25;;;;;;;9.95;2.53;;;;;;;;;;4948510;28;99572;-78
2023/03/31 14:02:05;;;;;;;13.32;3.70;;;;;;;;;;4948069;28;98471;-78
2023/03/31 14:04:42;;;;;;;13.93;2.83;;;;;;;;;;4948835;28;99537;-78
2023/03/31 14:07:08;;;;;;;16.42;2.70;;;;;;;;;;4948108;28;99160;-77
2023/03/31 14:09:35;;;;;;;10.68;2.42;;;;;;;;;;4948133;28;98452;-78
2023/03/31 14:12:18;;;;;;;10.13;2.70;;;;;;;;;;4949052;28;98851;-77
2023/03/31 14:14:45;;;;;;;;;;;;;;;;;;4948716;28;99786;-78
2023/03/31 14:17:11;;;;;;;10.23;3.17;;;;;;;;;;4947050;28;123103;-78
2023/03/31 14:19:56;;;;;;;11.48;2.90;;;;;;;;;;4951140;28;99760;-77
2023/03/31 14:22:26;;;;;;;6.82;2.45;;;;;;;;;;4948550;28;98331;-77
2023/03/31 14:25:03;;;;;;;11.23;2.67;;;;;;;;;;4947668;28;98726;-77
2023/03/31 14:27:42;;;;;;;9.43;3.13;;;;;;;;;;4948362;28;99191;-78
2023/03/31 14:30:16;;;;;;;8.75;2.03;;;;;;;;;;4948176;28;98333;-77
2023/03/31 14:33:00;;;;;;;15.05;2.70;;;;;;;;;;4948848;28;98191;-77
2023/03/31 14:35:32;;;;;;;9.70;2.78;;;;;;;;;;4948470;28;99035;-78
2023/03/31 14:37:59;;;;;;;8.65;2.80;;;;;;;;;;4947644;28;98693;-77
2023/03/31 14:40:26;;;;;;;5.95;2.30;;;;;;;;;;4948597;28;99435;-77
2023/03/31 14:42:52;;;;;;;7.60;2.33;;;;;;;;;;4951092;28;98511;-78
2023/03/31 14:45:23;;;;;;;7.60;2.65;;;;;;;;;;4946867;28;98898;-77
2023/03/31 14:48:09;;;;;;;9.57;2.70;;;;;;;;;;4947869;28;99930;-77
2023/03/31 14:50:35;;;;;;;8.18;2.08;;;;;;;;;;4948655;28;98619;-78
2023/03/31 14:53:03;;;;;;;10.05;2.67;;;;;;;;;;4947883;28;99174;-77
2023/03/31 14:55:31;;;;;;;10.23;2.67;;;;;;;;;;4947451;28;100160;-79